sensor_id;sensor_type;location;lat;lon;timestamp;P1;durP1;ratioP1;P2;durP2;ratioP2
56999;SDS011;42891;50.006;21.964;2022-09-09T00:13:55;35.38;;;27.02;;
56999;SDS011;42891;50.006;21.964;2022-09-09T00:18:13;33.88;;;25.27;;
56999;SDS011;42891;50.006;21.964;2022-09-09T00:22:16;33.42;;;25.15;;
56999;SDS011;42891;50.006;21.964;2022-09-09T00:30:32;32.50;;;24.10;;
56999;SDS011;42891;50.006;21.964;2022-09-09T00:34:35;30.40;;;24.63;;
56999;SDS011;42891;50.006;21.964;2022-09-09T00:38:38;30.00;;;23.45;;
56999;SDS011;42891;50.006;21.964;2022-09-09T00:42:43;32.15;;;23.02;;
56999;SDS011;42891;50.006;21.964;2022-09-09T00:46:48;29.00;;;22.35;;
56999;SDS011;42891;50.006;21.964;2022-09-09T01:07:28;27.95;;;23.13;;
56999;SDS011;42891;50.006;21.964;2022-09-09T01:11:33;32.93;;;24.33;;
56999;SDS011;42891;50.006;21.964;2022-09-09T01:15:42;33.22;;;24.25;;
56999;SDS011;42891;50.006;21.964;2022-09-09T01:28:21;33.25;;;25.58;;
56999;SDS011;42891;50.006;21.964;2022-09-09T01:32:44;41.42;;;28.67;;
56999;SDS011;42891;50.006;21.964;2022-09-09T01:36:49;42.88;;;29.98;;
56999;SDS011;42891;50.006;21.964;2022-09-09T01:40:53;49.88;;;33.15;;
56999;SDS011;42891;50.006;21.964;2022-09-09T01:44:53;47.17;;;33.05;;
56999;SDS011;42891;50.006;21.964;2022-09-09T01:48:55;54.15;;;36.97;;
56999;SDS011;42891;50.006;21.964;2022-09-09T01:52:58;51.13;;;33.95;;
56999;SDS011;42891;50.006;21.964;2022-09-09T02:01:27;59.05;;;38.47;;
56999;SDS011;42891;50.006;21.964;2022-09-09T02:05:39;59.65;;;41.83;;
56999;SDS011;42891;50.006;21.964;2022-09-09T02:09:43;53.85;;;38.65;;
56999;SDS011;42891;50.006;21.964;2022-09-09T02:13:54;54.97;;;38.55;;
56999;SDS011;42891;50.006;21.964;2022-09-09T02:17:59;58.10;;;39.47;;
56999;SDS011;42891;50.006;21.964;2022-09-09T02:22:06;51.22;;;34.20;;
56999;SDS011;42891;50.006;21.964;2022-09-09T02:26:06;51.72;;;35.30;;
56999;SDS011;42891;50.006;21.964;2022-09-09T02:30:09;57.00;;;36.00;;
56999;SDS011;42891;50.006;21.964;2022-09-09T02:34:10;54.00;;;36.78;;
56999;SDS011;42891;50.006;21.964;2022-09-09T02:38:12;54.50;;;37.97;;
56999;SDS011;42891;50.006;21.964;2022-09-09T02:42:14;49.13;;;34.78;;
56999;SDS011;42891;50.006;21.964;2022-09-09T02:50:25;49.85;;;36.08;;
56999;SDS011;42891;50.006;21.964;2022-09-09T02:54:33;49.88;;;33.92;;
56999;SDS011;42891;50.006;21.964;2022-09-09T02:58:40;51.33;;;34.95;;
56999;SDS011;42891;50.006;21.964;2022-09-09T03:02:41;52.47;;;34.72;;
56999;SDS011;42891;50.006;21.964;2022-09-09T03:06:42;50.00;;;33.85;;
56999;SDS011;42891;50.006;21.964;2022-09-09T03:10:43;54.50;;;33.85;;
56999;SDS011;42891;50.006;21.964;2022-09-09T03:14:43;50.90;;;33.88;;
56999;SDS011;42891;50.006;21.964;2022-09-09T03:18:45;49.10;;;33.40;;
56999;SDS011;42891;50.006;21.964;2022-09-09T03:22:46;44.07;;;32.27;;
56999;SDS011;42891;50.006;21.964;2022-09-09T03:26:46;47.90;;;34.00;;
56999;SDS011;42891;50.006;21.964;2022-09-09T03:30:46;52.28;;;33.95;;
56999;SDS011;42891;50.006;21.964;2022-09-09T03:34:47;48.20;;;32.57;;
56999;SDS011;42891;50.006;21.964;2022-09-09T03:38:49;44.55;;;32.78;;
56999;SDS011;42891;50.006;21.964;2022-09-09T03:42:50;45.88;;;32.75;;
56999;SDS011;42891;50.006;21.964;2022-09-09T03:46:51;49.25;;;33.45;;
56999;SDS011;42891;50.006;21.964;2022-09-09T03:50:51;46.53;;;31.23;;
56999;SDS011;42891;50.006;21.964;2022-09-09T03:54:53;48.65;;;32.65;;
56999;SDS011;42891;50.006;21.964;2022-09-09T03:58:54;42.90;;;31.90;;
56999;SDS011;42891;50.006;21.964;2022-09-09T04:02:54;47.27;;;33.93;;
56999;SDS011;42891;50.006;21.964;2022-09-09T04:06:55;51.90;;;34.28;;
56999;SDS011;42891;50.006;21.964;2022-09-09T04:10:56;45.85;;;32.45;;
56999;SDS011;42891;50.006;21.964;2022-09-09T04:14:57;43.90;;;31.95;;
56999;SDS011;42891;50.006;21.964;2022-09-09T04:18:58;46.75;;;32.45;;
56999;SDS011;42891;50.006;21.964;2022-09-09T04:22:59;41.92;;;30.65;;
56999;SDS011;42891;50.006;21.964;2022-09-09T04:27:00;44.03;;;30.77;;
56999;SDS011;42891;50.006;21.964;2022-09-09T04:31:07;41.63;;;29.80;;
56999;SDS011;42891;50.006;21.964;2022-09-09T04:35:09;45.38;;;31.40;;
56999;SDS011;42891;50.006;21.964;2022-09-09T04:39:09;43.37;;;31.17;;
56999;SDS011;42891;50.006;21.964;2022-09-09T04:43:10;44.77;;;31.53;;
56999;SDS011;42891;50.006;21.964;2022-09-09T04:47:10;40.50;;;29.97;;
56999;SDS011;42891;50.006;21.964;2022-09-09T04:51:12;47.03;;;32.28;;
56999;SDS011;42891;50.006;21.964;2022-09-09T04:55:13;42.28;;;29.27;;
56999;SDS011;42891;50.006;21.964;2022-09-09T04:59:14;42.28;;;29.38;;
56999;SDS011;42891;50.006;21.964;2022-09-09T05:03:14;33.42;;;25.42;;
56999;SDS011;42891;50.006;21.964;2022-09-09T05:07:15;34.33;;;25.90;;
56999;SDS011;42891;50.006;21.964;2022-09-09T05:11:22;33.25;;;24.67;;
56999;SDS011;42891;50.006;21.964;2022-09-09T05:15:24;25.40;;;21.15;;
56999;SDS011;42891;50.006;21.964;2022-09-09T05:19:24;27.27;;;21.00;;
56999;SDS011;42891;50.006;21.964;2022-09-09T05:23:24;25.15;;;19.88;;
56999;SDS011;42891;50.006;21.964;2022-09-09T05:27:25;31.27;;;23.33;;
56999;SDS011;42891;50.006;21.964;2022-09-09T05:31:25;26.75;;;20.02;;
56999;SDS011;42891;50.006;21.964;2022-09-09T05:35:28;29.85;;;23.02;;
56999;SDS011;42891;50.006;21.964;2022-09-09T05:39:28;28.50;;;22.00;;
56999;SDS011;42891;50.006;21.964;2022-09-09T05:43:28;27.27;;;21.83;;
56999;SDS011;42891;50.006;21.964;2022-09-09T05:47:29;26.85;;;21.02;;
56999;SDS011;42891;50.006;21.964;2022-09-09T05:51:29;28.80;;;21.23;;
56999;SDS011;42891;50.006;21.964;2022-09-09T05:55:32;21.95;;;18.80;;
56999;SDS011;42891;50.006;21.964;2022-09-09T05:59:33;23.70;;;19.93;;
56999;SDS011;42891;50.006;21.964;2022-09-09T06:03:36;22.67;;;17.90;;
56999;SDS011;42891;50.006;21.964;2022-09-09T06:07:38;21.08;;;17.65;;
56999;SDS011;42891;50.006;21.964;2022-09-09T06:11:42;22.83;;;17.73;;
56999;SDS011;42891;50.006;21.964;2022-09-09T06:15:52;19.65;;;16.35;;
56999;SDS011;42891;50.006;21.964;2022-09-09T06:19:52;21.20;;;16.23;;
56999;SDS011;42891;50.006;21.964;2022-09-09T06:23:53;18.52;;;15.40;;
56999;SDS011;42891;50.006;21.964;2022-09-09T06:27:53;17.83;;;15.60;;
56999;SDS011;42891;50.006;21.964;2022-09-09T06:31:54;19.53;;;16.33;;
56999;SDS011;42891;50.006;21.964;2022-09-09T06:35:54;17.80;;;14.30;;
56999;SDS011;42891;50.006;21.964;2022-09-09T06:39:57;17.10;;;14.15;;
56999;SDS011;42891;50.006;21.964;2022-09-09T06:43:57;16.15;;;14.45;;
56999;SDS011;42891;50.006;21.964;2022-09-09T06:47:57;16.50;;;13.70;;
56999;SDS011;42891;50.006;21.964;2022-09-09T06:51:57;18.52;;;13.82;;
56999;SDS011;42891;50.006;21.964;2022-09-09T06:55:58;15.43;;;13.10;;
56999;SDS011;42891;50.006;21.964;2022-09-09T06:59:58;15.30;;;12.77;;
56999;SDS011;42891;50.006;21.964;2022-09-09T07:03:58;16.53;;;13.77;;
56999;SDS011;42891;50.006;21.964;2022-09-09T07:07:59;18.15;;;14.75;;
56999;SDS011;42891;50.006;21.964;2022-09-09T07:12:00;15.00;;;13.40;;
56999;SDS011;42891;50.006;21.964;2022-09-09T07:16:07;15.70;;;13.35;;
56999;SDS011;42891;50.006;21.964;2022-09-09T07:20:09;15.65;;;13.50;;
56999;SDS011;42891;50.006;21.964;2022-09-09T07:24:10;18.02;;;14.45;;
56999;SDS011;42891;50.006;21.964;2022-09-09T07:28:10;18.73;;;14.23;;
56999;SDS011;42891;50.006;21.964;2022-09-09T07:32:11;15.60;;;13.95;;
56999;SDS011;42891;50.006;21.964;2022-09-09T07:40:17;17.77;;;13.15;;
56999;SDS011;42891;50.006;21.964;2022-09-09T07:44:21;13.45;;;12.05;;
56999;SDS011;42891;50.006;21.964;2022-09-09T07:48:23;12.70;;;11.13;;
56999;SDS011;42891;50.006;21.964;2022-09-09T07:52:23;11.70;;;9.70;;
56999;SDS011;42891;50.006;21.964;2022-09-09T07:56:24;14.55;;;10.70;;
56999;SDS011;42891;50.006;21.964;2022-09-09T08:00:26;13.82;;;10.63;;
56999;SDS011;42891;50.006;21.964;2022-09-09T08:04:27;11.30;;;9.25;;
56999;SDS011;42891;50.006;21.964;2022-09-09T08:08:28;9.18;;;8.23;;
56999;SDS011;42891;50.006;21.964;2022-09-09T08:12:29;10.50;;;8.55;;
56999;SDS011;42891;50.006;21.964;2022-09-09T08:16:30;9.57;;;8.00;;
56999;SDS011;42891;50.006;21.964;2022-09-09T08:20:35;8.50;;;7.60;;
56999;SDS011;42891;50.006;21.964;2022-09-09T08:24:36;7.85;;;6.43;;
56999;SDS011;42891;50.006;21.964;2022-09-09T08:28:36;10.17;;;7.97;;
56999;SDS011;42891;50.006;21.964;2022-09-09T08:32:36;9.88;;;8.57;;
56999;SDS011;42891;50.006;21.964;2022-09-09T08:36:44;9.67;;;8.67;;
56999;SDS011;42891;50.006;21.964;2022-09-09T08:40:45;9.15;;;8.25;;
56999;SDS011;42891;50.006;21.964;2022-09-09T08:49:13;9.70;;;7.35;;
56999;SDS011;42891;50.006;21.964;2022-09-09T08:53:35;7.50;;;6.80;;
56999;SDS011;42891;50.006;21.964;2022-09-09T08:57:40;7.72;;;6.50;;
56999;SDS011;42891;50.006;21.964;2022-09-09T09:01:47;7.55;;;6.85;;
56999;SDS011;42891;50.006;21.964;2022-09-09T09:10:10;7.90;;;6.55;;
56999;SDS011;42891;50.006;21.964;2022-09-09T09:14:21;8.40;;;6.38;;
56999;SDS011;42891;50.006;21.964;2022-09-09T09:18:23;6.70;;;6.00;;
56999;SDS011;42891;50.006;21.964;2022-09-09T09:22:32;6.22;;;5.63;;
56999;SDS011;42891;50.006;21.964;2022-09-09T09:26:36;6.93;;;6.20;;
56999;SDS011;42891;50.006;21.964;2022-09-09T09:30:49;6.10;;;5.60;;
56999;SDS011;42891;50.006;21.964;2022-09-09T09:34:54;6.15;;;5.57;;
56999;SDS011;42891;50.006;21.964;2022-09-09T09:38:57;6.70;;;6.00;;
56999;SDS011;42891;50.006;21.964;2022-09-09T09:43:00;5.57;;;5.00;;
56999;SDS011;42891;50.006;21.964;2022-09-09T09:51:09;6.82;;;5.10;;
56999;SDS011;42891;50.006;21.964;2022-09-09T09:55:15;5.13;;;4.40;;
56999;SDS011;42891;50.006;21.964;2022-09-09T10:03:29;5.60;;;4.63;;
56999;SDS011;42891;50.006;21.964;2022-09-09T10:07:31;5.35;;;4.95;;
56999;SDS011;42891;50.006;21.964;2022-09-09T10:11:39;5.07;;;4.57;;
56999;SDS011;42891;50.006;21.964;2022-09-09T10:16:12;5.93;;;5.03;;
56999;SDS011;42891;50.006;21.964;2022-09-09T10:20:23;4.80;;;4.40;;
56999;SDS011;42891;50.006;21.964;2022-09-09T10:33:15;4.82;;;4.43;;
56999;SDS011;42891;50.006;21.964;2022-09-09T10:45:59;6.57;;;4.85;;
56999;SDS011;42891;50.006;21.964;2022-09-09T10:58:34;4.97;;;4.57;;
56999;SDS011;42891;50.006;21.964;2022-09-09T11:02:39;5.15;;;4.65;;
56999;SDS011;42891;50.006;21.964;2022-09-09T11:06:42;5.40;;;4.90;;
56999;SDS011;42891;50.006;21.964;2022-09-09T11:15:22;5.00;;;4.53;;
56999;SDS011;42891;50.006;21.964;2022-09-09T11:19:35;5.18;;;4.57;;
56999;SDS011;42891;50.006;21.964;2022-09-09T11:23:40;5.45;;;4.95;;
56999;SDS011;42891;50.006;21.964;2022-09-09T11:40:39;5.22;;;4.47;;
56999;SDS011;42891;50.006;21.964;2022-09-09T11:44:40;5.03;;;4.20;;
56999;SDS011;42891;50.006;21.964;2022-09-09T11:48:43;5.13;;;4.30;;
56999;SDS011;42891;50.006;21.964;2022-09-09T11:52:48;6.60;;;4.70;;
56999;SDS011;42891;50.006;21.964;2022-09-09T11:56:49;5.03;;;4.53;;
56999;SDS011;42891;50.006;21.964;2022-09-09T12:00:49;7.33;;;4.50;;
56999;SDS011;42891;50.006;21.964;2022-09-09T12:09:12;6.57;;;4.75;;
56999;SDS011;42891;50.006;21.964;2022-09-09T12:13:18;4.30;;;3.95;;
56999;SDS011;42891;50.006;21.964;2022-09-09T12:17:24;6.03;;;4.38;;
56999;SDS011;42891;50.006;21.964;2022-09-09T12:26:07;5.10;;;3.95;;
56999;SDS011;42891;50.006;21.964;2022-09-09T12:30:20;8.82;;;4.70;;
56999;SDS011;42891;50.006;21.964;2022-09-09T12:34:27;6.38;;;3.90;;
56999;SDS011;42891;50.006;21.964;2022-09-09T12:38:42;4.57;;;4.18;;
56999;SDS011;42891;50.006;21.964;2022-09-09T12:42:43;4.93;;;3.67;;
56999;SDS011;42891;50.006;21.964;2022-09-09T12:46:44;6.73;;;3.97;;
56999;SDS011;42891;50.006;21.964;2022-09-09T12:50:48;4.28;;;3.88;;
56999;SDS011;42891;50.006;21.964;2022-09-09T12:54:50;4.28;;;3.58;;
56999;SDS011;42891;50.006;21.964;2022-09-09T12:58:52;3.90;;;3.60;;
56999;SDS011;42891;50.006;21.964;2022-09-09T13:02:54;6.53;;;4.38;;
56999;SDS011;42891;50.006;21.964;2022-09-09T13:07:05;4.43;;;4.03;;
56999;SDS011;42891;50.006;21.964;2022-09-09T13:11:13;5.00;;;3.75;;
56999;SDS011;42891;50.006;21.964;2022-09-09T13:15:23;4.70;;;4.30;;
56999;SDS011;42891;50.006;21.964;2022-09-09T13:19:26;5.53;;;4.18;;
56999;SDS011;42891;50.006;21.964;2022-09-09T13:23:33;4.57;;;4.00;;
56999;SDS011;42891;50.006;21.964;2022-09-09T13:27:37;4.05;;;3.72;;
56999;SDS011;42891;50.006;21.964;2022-09-09T13:31:39;4.60;;;3.65;;
56999;SDS011;42891;50.006;21.964;2022-09-09T13:39:55;4.40;;;4.00;;
56999;SDS011;42891;50.006;21.964;2022-09-09T13:43:55;4.18;;;3.72;;
56999;SDS011;42891;50.006;21.964;2022-09-09T13:47:57;7.78;;;3.78;;
56999;SDS011;42891;50.006;21.964;2022-09-09T13:52:09;6.00;;;3.53;;
56999;SDS011;42891;50.006;21.964;2022-09-09T13:56:11;3.42;;;2.95;;
56999;SDS011;42891;50.006;21.964;2022-09-09T14:00:12;5.05;;;3.60;;
56999;SDS011;42891;50.006;21.964;2022-09-09T14:04:13;6.47;;;3.47;;
56999;SDS011;42891;50.006;21.964;2022-09-09T14:08:20;3.37;;;2.80;;
56999;SDS011;42891;50.006;21.964;2022-09-09T14:12:23;3.38;;;2.80;;
56999;SDS011;42891;50.006;21.964;2022-09-09T14:16:23;4.60;;;2.90;;
56999;SDS011;42891;50.006;21.964;2022-09-09T14:20:27;3.35;;;2.58;;
56999;SDS011;42891;50.006;21.964;2022-09-09T14:24:27;3.50;;;2.60;;
56999;SDS011;42891;50.006;21.964;2022-09-09T14:28:27;5.15;;;2.47;;
56999;SDS011;42891;50.006;21.964;2022-09-09T14:32:28;4.55;;;3.20;;
56999;SDS011;42891;50.006;21.964;2022-09-09T14:36:29;3.72;;;2.65;;
56999;SDS011;42891;50.006;21.964;2022-09-09T14:40:30;2.90;;;2.55;;
56999;SDS011;42891;50.006;21.964;2022-09-09T14:44:30;4.07;;;2.72;;
56999;SDS011;42891;50.006;21.964;2022-09-09T14:48:30;2.75;;;2.53;;
56999;SDS011;42891;50.006;21.964;2022-09-09T14:52:31;4.43;;;2.63;;
56999;SDS011;42891;50.006;21.964;2022-09-09T14:56:32;5.53;;;2.83;;
56999;SDS011;42891;50.006;21.964;2022-09-09T15:00:36;3.88;;;2.70;;
56999;SDS011;42891;50.006;21.964;2022-09-09T15:04:36;4.10;;;2.90;;
56999;SDS011;42891;50.006;21.964;2022-09-09T15:08:37;3.57;;;3.00;;
56999;SDS011;42891;50.006;21.964;2022-09-09T15:12:39;4.18;;;2.92;;
56999;SDS011;42891;50.006;21.964;2022-09-09T15:16:39;4.05;;;2.85;;
56999;SDS011;42891;50.006;21.964;2022-09-09T15:20:44;3.88;;;3.30;;
56999;SDS011;42891;50.006;21.964;2022-09-09T15:24:46;3.67;;;3.15;;
56999;SDS011;42891;50.006;21.964;2022-09-09T15:28:47;4.43;;;2.90;;
56999;SDS011;42891;50.006;21.964;2022-09-09T15:32:49;3.53;;;3.17;;
56999;SDS011;42891;50.006;21.964;2022-09-09T15:36:49;3.47;;;3.17;;
56999;SDS011;42891;50.006;21.964;2022-09-09T15:40:53;4.87;;;2.97;;
56999;SDS011;42891;50.006;21.964;2022-09-09T15:44:54;3.50;;;3.17;;
56999;SDS011;42891;50.006;21.964;2022-09-09T15:48:56;4.53;;;3.60;;
56999;SDS011;42891;50.006;21.964;2022-09-09T15:53:13;11.30;;;8.30;;
56999;SDS011;42891;50.006;21.964;2022-09-09T15:57:13;12.75;;;10.63;;
56999;SDS011;42891;50.006;21.964;2022-09-09T16:01:14;15.93;;;11.85;;
56999;SDS011;42891;50.006;21.964;2022-09-09T16:05:16;14.27;;;11.00;;
56999;SDS011;42891;50.006;21.964;2022-09-09T16:09:17;14.27;;;10.43;;
56999;SDS011;42891;50.006;21.964;2022-09-09T16:13:17;19.30;;;12.90;;
56999;SDS011;42891;50.006;21.964;2022-09-09T16:17:17;14.10;;;11.15;;
56999;SDS011;42891;50.006;21.964;2022-09-09T16:21:27;15.88;;;11.30;;
56999;SDS011;42891;50.006;21.964;2022-09-09T16:25:29;16.20;;;11.43;;
56999;SDS011;42891;50.006;21.964;2022-09-09T16:29:30;13.43;;;11.50;;
56999;SDS011;42891;50.006;21.964;2022-09-09T16:33:30;15.70;;;12.20;;
56999;SDS011;42891;50.006;21.964;2022-09-09T16:37:30;14.93;;;11.23;;
56999;SDS011;42891;50.006;21.964;2022-09-09T16:41:34;14.93;;;11.73;;
56999;SDS011;42891;50.006;21.964;2022-09-09T16:45:40;17.65;;;12.25;;
56999;SDS011;42891;50.006;21.964;2022-09-09T16:49:42;15.82;;;13.23;;
56999;SDS011;42891;50.006;21.964;2022-09-09T16:53:42;16.80;;;12.68;;
56999;SDS011;42891;50.006;21.964;2022-09-09T16:57:43;18.02;;;12.70;;
56999;SDS011;42891;50.006;21.964;2022-09-09T17:01:44;17.17;;;12.90;;
56999;SDS011;42891;50.006;21.964;2022-09-09T17:05:45;20.50;;;14.23;;
56999;SDS011;42891;50.006;21.964;2022-09-09T17:09:46;20.70;;;13.97;;
56999;SDS011;42891;50.006;21.964;2022-09-09T17:13:46;20.90;;;14.83;;
56999;SDS011;42891;50.006;21.964;2022-09-09T17:17:47;23.15;;;14.18;;
56999;SDS011;42891;50.006;21.964;2022-09-09T17:21:49;23.27;;;14.95;;
56999;SDS011;42891;50.006;21.964;2022-09-09T17:25:56;22.13;;;13.80;;
56999;SDS011;42891;50.006;21.964;2022-09-09T17:29:57;18.40;;;13.27;;
56999;SDS011;42891;50.006;21.964;2022-09-09T17:33:58;17.50;;;12.65;;
56999;SDS011;42891;50.006;21.964;2022-09-09T17:38:00;21.75;;;14.93;;
56999;SDS011;42891;50.006;21.964;2022-09-09T17:42:00;20.47;;;15.30;;
56999;SDS011;42891;50.006;21.964;2022-09-09T17:50:19;22.20;;;15.65;;
56999;SDS011;42891;50.006;21.964;2022-09-09T17:54:20;25.73;;;15.13;;
56999;SDS011;42891;50.006;21.964;2022-09-09T17:58:20;19.05;;;14.77;;
56999;SDS011;42891;50.006;21.964;2022-09-09T18:02:21;22.15;;;15.60;;
56999;SDS011;42891;50.006;21.964;2022-09-09T18:06:22;22.00;;;15.33;;
56999;SDS011;42891;50.006;21.964;2022-09-09T18:10:27;22.17;;;15.95;;
56999;SDS011;42891;50.006;21.964;2022-09-09T18:14:28;21.92;;;16.13;;
56999;SDS011;42891;50.006;21.964;2022-09-09T18:18:30;23.38;;;16.85;;
56999;SDS011;42891;50.006;21.964;2022-09-09T18:22:30;23.97;;;16.43;;
56999;SDS011;42891;50.006;21.964;2022-09-09T18:26:33;23.50;;;16.83;;
56999;SDS011;42891;50.006;21.964;2022-09-09T18:30:37;22.55;;;15.88;;
56999;SDS011;42891;50.006;21.964;2022-09-09T18:34:39;24.17;;;16.35;;
56999;SDS011;42891;50.006;21.964;2022-09-09T18:38:40;25.13;;;15.30;;
56999;SDS011;42891;50.006;21.964;2022-09-09T18:42:40;28.05;;;17.13;;
56999;SDS011;42891;50.006;21.964;2022-09-09T18:46:41;22.60;;;16.25;;
56999;SDS011;42891;50.006;21.964;2022-09-09T18:50:42;23.25;;;16.15;;
56999;SDS011;42891;50.006;21.964;2022-09-09T18:54:42;21.20;;;15.37;;
56999;SDS011;42891;50.006;21.964;2022-09-09T18:58:44;19.63;;;14.98;;
56999;SDS011;42891;50.006;21.964;2022-09-09T19:02:47;21.20;;;15.48;;
56999;SDS011;42891;50.006;21.964;2022-09-09T19:06:51;23.55;;;15.40;;
56999;SDS011;42891;50.006;21.964;2022-09-09T19:15:00;21.50;;;16.52;;
56999;SDS011;42891;50.006;21.964;2022-09-09T19:19:02;23.80;;;16.58;;
56999;SDS011;42891;50.006;21.964;2022-09-09T19:23:07;23.50;;;18.80;;
56999;SDS011;42891;50.006;21.964;2022-09-09T19:27:08;22.13;;;16.90;;
56999;SDS011;42891;50.006;21.964;2022-09-09T19:31:09;25.00;;;17.80;;
56999;SDS011;42891;50.006;21.964;2022-09-09T19:35:09;21.85;;;16.27;;
56999;SDS011;42891;50.006;21.964;2022-09-09T19:39:10;26.70;;;17.90;;
56999;SDS011;42891;50.006;21.964;2022-09-09T19:43:10;23.55;;;17.45;;
56999;SDS011;42891;50.006;21.964;2022-09-09T19:47:11;22.55;;;17.38;;
56999;SDS011;42891;50.006;21.964;2022-09-09T19:51:17;25.90;;;18.50;;
56999;SDS011;42891;50.006;21.964;2022-09-09T19:55:19;26.50;;;18.55;;
56999;SDS011;42891;50.006;21.964;2022-09-09T19:59:19;24.60;;;16.73;;
56999;SDS011;42891;50.006;21.964;2022-09-09T20:03:20;24.00;;;16.87;;
56999;SDS011;42891;50.006;21.964;2022-09-09T20:07:20;25.10;;;17.05;;
56999;SDS011;42891;50.006;21.964;2022-09-09T20:11:21;23.60;;;18.03;;
56999;SDS011;42891;50.006;21.964;2022-09-09T20:15:22;24.15;;;17.88;;
56999;SDS011;42891;50.006;21.964;2022-09-09T20:19:22;25.48;;;17.95;;
56999;SDS011;42891;50.006;21.964;2022-09-09T20:23:22;25.50;;;18.20;;
56999;SDS011;42891;50.006;21.964;2022-09-09T20:27:22;24.23;;;17.10;;
56999;SDS011;42891;50.006;21.964;2022-09-09T20:31:24;23.90;;;18.47;;
56999;SDS011;42891;50.006;21.964;2022-09-09T20:35:27;24.70;;;17.20;;
56999;SDS011;42891;50.006;21.964;2022-09-09T20:39:27;23.42;;;16.83;;
56999;SDS011;42891;50.006;21.964;2022-09-09T20:43:28;24.75;;;18.48;;
56999;SDS011;42891;50.006;21.964;2022-09-09T20:47:28;25.50;;;18.67;;
56999;SDS011;42891;50.006;21.964;2022-09-09T20:51:29;24.27;;;18.50;;
56999;SDS011;42891;50.006;21.964;2022-09-09T20:55:31;26.90;;;19.67;;
56999;SDS011;42891;50.006;21.964;2022-09-09T20:59:33;25.38;;;17.35;;
56999;SDS011;42891;50.006;21.964;2022-09-09T21:03:36;24.30;;;18.25;;
56999;SDS011;42891;50.006;21.964;2022-09-09T21:07:36;27.50;;;19.17;;
56999;SDS011;42891;50.006;21.964;2022-09-09T21:11:36;28.80;;;19.57;;
56999;SDS011;42891;50.006;21.964;2022-09-09T21:15:37;26.35;;;18.70;;
56999;SDS011;42891;50.006;21.964;2022-09-09T21:19:37;26.73;;;19.52;;
56999;SDS011;42891;50.006;21.964;2022-09-09T21:23:38;25.37;;;18.83;;
56999;SDS011;42891;50.006;21.964;2022-09-09T21:27:38;25.83;;;19.40;;
56999;SDS011;42891;50.006;21.964;2022-09-09T21:31:38;27.10;;;18.97;;
56999;SDS011;42891;50.006;21.964;2022-09-09T21:35:39;23.47;;;18.53;;
56999;SDS011;42891;50.006;21.964;2022-09-09T21:39:40;25.27;;;18.65;;
56999;SDS011;42891;50.006;21.964;2022-09-09T21:43:41;26.58;;;19.60;;
56999;SDS011;42891;50.006;21.964;2022-09-09T21:47:43;26.67;;;19.42;;
56999;SDS011;42891;50.006;21.964;2022-09-09T21:51:48;26.85;;;19.00;;
56999;SDS011;42891;50.006;21.964;2022-09-09T21:55:48;25.77;;;19.97;;
56999;SDS011;42891;50.006;21.964;2022-09-09T21:59:48;29.13;;;19.93;;
56999;SDS011;42891;50.006;21.964;2022-09-09T22:03:49;30.13;;;19.63;;
56999;SDS011;42891;50.006;21.964;2022-09-09T22:07:49;23.38;;;18.95;;
56999;SDS011;42891;50.006;21.964;2022-09-09T22:11:52;31.15;;;19.52;;
56999;SDS011;42891;50.006;21.964;2022-09-09T22:15:52;28.10;;;20.13;;
56999;SDS011;42891;50.006;21.964;2022-09-09T22:19:57;27.23;;;19.33;;
56999;SDS011;42891;50.006;21.964;2022-09-09T22:24:01;28.85;;;19.30;;
56999;SDS011;42891;50.006;21.964;2022-09-09T22:28:04;25.90;;;18.80;;
56999;SDS011;42891;50.006;21.964;2022-09-09T22:32:06;25.40;;;18.73;;
56999;SDS011;42891;50.006;21.964;2022-09-09T22:36:08;24.73;;;18.77;;
56999;SDS011;42891;50.006;21.964;2022-09-09T22:40:08;25.97;;;17.97;;
56999;SDS011;42891;50.006;21.964;2022-09-09T22:44:09;26.88;;;18.95;;
56999;SDS011;42891;50.006;21.964;2022-09-09T22:48:09;26.43;;;17.97;;
56999;SDS011;42891;50.006;21.964;2022-09-09T22:52:10;28.40;;;18.38;;
56999;SDS011;42891;50.006;21.964;2022-09-09T22:56:12;23.57;;;17.77;;
56999;SDS011;42891;50.006;21.964;2022-09-09T23:00:17;25.08;;;17.60;;
56999;SDS011;42891;50.006;21.964;2022-09-09T23:04:17;22.25;;;16.88;;
56999;SDS011;42891;50.006;21.964;2022-09-09T23:08:22;24.33;;;17.60;;
56999;SDS011;42891;50.006;21.964;2022-09-09T23:12:24;25.52;;;17.95;;
56999;SDS011;42891;50.006;21.964;2022-09-09T23:16:26;24.08;;;16.75;;
56999;SDS011;42891;50.006;21.964;2022-09-09T23:20:28;20.10;;;15.60;;
56999;SDS011;42891;50.006;21.964;2022-09-09T23:24:28;21.20;;;16.30;;
56999;SDS011;42891;50.006;21.964;2022-09-09T23:28:32;25.23;;;18.63;;
56999;SDS011;42891;50.006;21.964;2022-09-09T23:32:34;25.60;;;18.25;;
56999;SDS011;42891;50.006;21.964;2022-09-09T23:36:34;25.58;;;18.38;;
56999;SDS011;42891;50.006;21.964;2022-09-09T23:40:35;26.27;;;19.17;;
56999;SDS011;42891;50.006;21.964;2022-09-09T23:44:36;26.15;;;18.50;;
56999;SDS011;42891;50.006;21.964;2022-09-09T23:48:37;28.05;;;18.75;;
56999;SDS011;42891;50.006;21.964;2022-09-09T23:52:38;27.40;;;17.55;;
56999;SDS011;42891;50.006;21.964;2022-09-09T23:56:42;28.30;;;18.20;;
